Terminal Aerodrome Forecast
Issued by NWS

Home | Current Version | Previous Version | Text Only | Print | Product List | Glossary On
Versions: 1 2 3 4 5 6 7 8 9 10 11 12 13 14 15 16 17 18 19 20 21 22 23 24 25 26 27 28 29 30
000
FTUS43 KABR 211100
TAFATY
TAF
KATY 211120Z 2112/2212 18011KT 1 1/2SM BR OVC002
     FM211800 16012KT 4SM BR OVC006
     FM212100 16013KT 5SM HZ OVC010
     FM220600 15011KT 1SM BR OVC004=

USA.gov is the U.S. government's official web portal to all federal, state and local government web resources and services.